Time;durP1;ratioP1;P1;durP2;ratioP2;P2;SDS_P1;SDS_P2;PMS_P1;PMS_P2;Temp;Humidity;BMP_temperature;BMP_pressure;BME280_temperature;BME280_humidity;BME280_pressure;Samples;Min_cycle;Max_cycle;Signal;HPM_P1;HPM_P2
2022/04/02 00:01:52;;;;;;;33.20;27.85;;;307.70;1664.00;;;;;;5096256;28;20028;-61
2022/04/02 00:04:18;;;;;;;37.67;32.50;;;307.60;1664.00;;;;;;5095749;28;20393;-60
2022/04/02 00:06:44;;;;;;;32.60;27.80;;;307.70;1664.00;;;;;;5095926;28;20069;-60
2022/04/02 00:09:10;;;;;;;46.85;38.13;;;307.70;1664.00;;;;;;5095739;28;20099;-60
2022/04/02 00:11:35;;;;;;;43.05;34.85;;;307.70;1638.40;;;;;;5095733;28;20058;-60
2022/04/02 00:14:01;;;;;;;52.67;42.80;;;307.60;1664.00;;;;;;5095158;28;20063;-60
2022/04/02 00:16:27;;;;;;;44.47;38.38;;;307.60;1638.40;;;;;;5095521;28;20024;-61
2022/04/02 00:18:53;;;;;;;43.17;31.83;;;307.50;1638.40;;;;;;5095566;28;20107;-61
2022/04/02 00:21:19;;;;;;;42.13;32.78;;;307.50;1638.40;;;;;;5095238;28;20520;-65
2022/04/02 00:23:46;;;;;;;35.97;29.38;;;307.50;1638.40;;;;;;5095144;28;20085;-60
2022/04/02 00:26:13;;;;;;;36.35;29.42;;;307.40;1612.80;;;;;;5095327;28;20530;-60
2022/04/02 00:28:40;;;;;;;37.35;31.30;;;307.40;1638.40;;;;;;5095191;28;20401;-62
2022/04/02 00:31:08;;;;;;;40.78;34.00;;;307.40;1638.40;;;;;;5095328;28;20024;-64
2022/04/02 00:33:34;;;;;;;43.63;34.60;;;307.40;1638.40;;;;;;5095216;28;20381;-60
2022/04/02 00:36:01;;;;;;;31.73;26.60;;;307.40;1638.40;;;;;;5095269;28;20418;-59
2022/04/02 00:38:27;;;;;;;25.95;21.75;;;307.40;1638.40;;;;;;5094938;28;20170;-59
2022/04/02 00:40:53;;;;;;;24.70;20.88;;;307.40;1612.80;;;;;;5095179;28;20057;-60
2022/04/02 00:43:36;;;;;;;24.55;20.33;;;307.40;1612.80;;;;;;5095215;28;20020;-63
2022/04/02 00:46:07;;;;;;;20.60;17.65;;;307.40;1612.80;;;;;;5094869;28;20028;-60
2022/04/02 00:48:33;;;;;;;22.13;18.85;;;307.40;1612.80;;;;;;5094063;28;20081;-63
2022/04/02 00:51:01;;;;;;;22.60;18.25;;;307.40;1612.80;;;;;;5076648;28;20073;-64
2022/04/02 00:53:36;;;;;;;22.25;19.70;;;307.40;1612.80;;;;;;5095207;28;20118;-60
2022/04/02 00:56:04;;;;;;;23.27;18.92;;;307.40;1587.20;;;;;;5094830;28;20374;-63
2022/04/02 00:58:29;;;;;;;22.48;20.08;;;307.40;1612.80;;;;;;5094561;28;20381;-66
2022/04/02 01:00:55;;;;;;;22.98;20.50;;;307.40;1612.80;;;;;;5094629;28;20028;-59
2022/04/02 01:03:21;;;;;;;84.40;54.95;;;307.40;1587.20;;;;;;5094874;28;20418;-65
2022/04/02 01:05:48;;;;;;;113.47;72.10;;;307.40;1612.80;;;;;;5094845;28;20019;-60
2022/04/02 01:08:13;;;;;;;144.45;93.57;;;307.40;1612.80;;;;;;5094725;28;20028;-60
2022/04/02 01:10:39;;;;;;;128.77;82.03;;;307.30;1587.20;;;;;;5094688;28;20028;-61
2022/04/02 01:13:07;;;;;;;208.88;126.32;;;307.40;1587.20;;;;;;5094452;28;20028;-65
2022/04/02 01:15:33;;;;;;;201.18;127.13;;;307.40;1587.20;;;;;;5094646;28;20144;-64
2022/04/02 01:17:59;;;;;;;201.38;132.98;;;307.40;1587.20;;;;;;5094580;28;20085;-65
2022/04/02 01:20:29;;;;;;;161.00;107.43;;;307.40;1587.20;;;;;;5094306;28;20024;-60
2022/04/02 01:22:54;;;;;;;264.83;159.70;;;307.40;1612.80;;;;;;5094196;28;20044;-60
2022/04/02 01:25:20;;;;;;;204.02;121.88;;;307.30;1587.20;;;;;;5094289;28;20101;-60
2022/04/02 01:27:47;;;;;;;154.30;94.50;;;307.40;1587.20;;;;;;5094344;28;20016;-59
2022/04/02 01:30:14;;;;;;;123.40;74.82;;;307.40;1612.80;;;;;;5094343;28;20031;-63
2022/04/02 01:32:41;;;;;;;76.93;51.60;;;307.30;1587.20;;;;;;5094644;28;20024;-64
2022/04/02 01:35:08;;;;;;;90.18;61.95;;;307.30;1612.80;;;;;;5094128;28;20052;-60
2022/04/02 01:37:35;;;;;;;59.60;43.40;;;307.20;1612.80;;;;;;5094219;28;20031;-60
2022/04/02 01:40:03;;;;;;;60.30;44.30;;;307.20;1612.80;;;;;;5076037;28;20063;-60
2022/04/02 01:42:29;;;;;;;113.47;75.32;;;307.20;1612.80;;;;;;5093960;28;20424;-62
2022/04/02 01:44:55;;;;;;;123.25;82.32;;;307.20;1612.80;;;;;;5093408;28;20027;-65
2022/04/02 01:47:21;;;;;;;82.32;57.63;;;307.20;1587.20;;;;;;5093768;28;20032;-60
2022/04/02 01:49:48;;;;;;;100.05;64.03;;;307.20;1612.80;;;;;;5094158;28;20028;-59
2022/04/02 01:52:18;;;;;;;142.15;88.35;;;307.20;1612.80;;;;;;5093838;28;20457;-63
2022/04/02 01:54:45;;;;;;;151.82;97.32;;;307.20;1612.80;;;;;;5093795;28;20036;-63
2022/04/02 01:57:11;;;;;;;136.80;88.07;;;307.20;1612.80;;;;;;5093946;28;20381;-60
2022/04/02 01:59:39;;;;;;;109.70;75.72;;;307.20;1612.80;;;;;;5093338;28;20024;-64
2022/04/02 02:02:08;;;;;;;103.60;69.90;;;307.20;1612.80;;;;;;5093747;28;20096;-60
2022/04/02 02:04:34;;;;;;;136.18;90.25;;;307.30;1612.80;;;;;;5093906;28;20575;-60
2022/04/02 02:07:00;;;;;;;112.90;77.53;;;307.20;1587.20;;;;;;5093528;28;20064;-63
2022/04/02 02:09:26;;;;;;;96.35;67.38;;;282.50;1561.60;;;;;;5093136;28;20021;-63
2022/04/02 02:11:52;;;;;;;85.68;60.55;;;307.20;1612.80;;;;;;5093097;28;20031;-62
2022/04/02 02:14:18;;;;;;;71.43;48.80;;;307.20;1587.20;;;;;;5093535;28;20035;-65
2022/04/02 02:16:43;;;;;;;74.50;50.25;;;307.20;1587.20;;;;;;5093288;28;20020;-61
2022/04/02 02:19:09;;;;;;;60.85;45.75;;;282.50;1561.60;;;;;;5093612;28;20031;-59
2022/04/02 02:21:35;;;;;;;52.38;41.25;;;282.50;1561.60;;;;;;5093527;28;20048;-63
2022/04/02 02:24:01;;;;;;;46.08;37.53;;;282.50;1561.60;;;;;;5094334;28;20030;-63
2022/04/02 02:26:27;;;;;;;47.13;38.25;;;282.50;1587.20;;;;;;5093480;28;20055;-63
2022/04/02 02:28:52;;;;;;;36.90;32.15;;;282.50;1561.60;;;;;;5093654;28;20047;-63
2022/04/02 02:31:18;;;;;;;38.67;33.20;;;282.40;1587.20;;;;;;5093630;28;20048;-62
2022/04/02 02:36:28;;;;;;;40.40;34.20;;;282.40;1587.20;;;;;;5093498;28;20523;-63
2022/04/02 02:38:56;;;;;;;49.13;38.40;;;282.40;1587.20;;;;;;5093303;28;20036;-63
2022/04/02 02:41:22;;;;;;;49.67;38.75;;;282.30;1587.20;;;;;;5093586;28;20024;-62
2022/04/02 02:43:48;;;;;;;45.17;35.90;;;282.30;1587.20;;;;;;5093544;28;20091;-59
2022/04/02 02:46:17;;;;;;;38.38;31.70;;;282.30;1587.20;;;;;;5093308;28;20071;-59
2022/04/02 02:48:46;;;;;;;41.80;33.08;;;282.30;1561.60;;;;;;5093309;28;20421;-59
2022/04/02 02:51:13;;;;;;;47.90;36.63;;;282.30;1561.60;;;;;;5093219;28;20465;-61
2022/04/02 02:53:39;;;;;;;51.60;37.55;;;282.30;1561.60;;;;;;5093296;28;20471;-59
2022/04/02 02:56:06;;;;;;;50.80;35.80;;;282.30;1561.60;;;;;;5092954;28;20032;-64
2022/04/02 02:58:31;;;;;;;41.72;30.58;;;282.30;1587.20;;;;;;5093437;28;20039;-63
2022/04/02 03:00:57;;;;;;;45.03;33.65;;;282.20;1561.60;;;;;;5093556;28;20020;-63
2022/04/02 03:03:24;;;;;;;46.95;35.03;;;282.20;1561.60;;;;;;5093274;28;20158;-63
2022/04/02 03:05:50;;;;;;;44.97;33.28;;;282.20;1587.20;;;;;;5093400;28;20056;-65
2022/04/02 03:08:16;;;;;;;43.40;33.95;;;282.20;1587.20;;;;;;5092908;28;20465;-60
2022/04/02 03:10:44;;;;;;;45.60;33.60;;;282.10;1587.20;;;;;;5093423;28;20020;-65
2022/04/02 03:13:10;;;;;;;46.80;34.65;;;282.10;1612.80;;;;;;5096792;28;20028;-62
2022/04/02 03:15:35;;;;;;;50.05;33.95;;;282.10;1612.80;;;;;;5096837;28;20020;-65
2022/04/02 03:18:04;;;;;;;56.00;37.22;;;282.10;1612.80;;;;;;5096646;28;20037;-65
2022/04/02 03:20:30;;;;;;;48.95;33.92;;;282.10;1638.40;;;;;;5096723;28;20028;-60
2022/04/02 03:22:56;;;;;;;46.78;33.92;;;282.00;1638.40;;;;;;5096533;28;20044;-60
2022/04/02 03:25:22;;;;;;;46.03;34.13;;;282.00;1638.40;;;;;;5096820;28;20028;-64
2022/04/02 03:27:48;;;;;;;43.65;33.08;;;282.00;1664.00;;;;;;5096739;28;20029;-64
2022/04/02 03:30:16;;;;;;;37.47;29.75;;;282.00;1664.00;;;;;;5096603;28;20020;-63
2022/04/02 03:32:43;;;;;;;33.72;28.25;;;281.90;1664.00;;;;;;5096610;28;20024;-65
2022/04/02 03:35:09;;;;;;;34.58;27.50;;;281.90;1664.00;;;;;;5096415;28;20038;-59
2022/04/02 03:37:37;;;;;;;30.45;24.92;;;281.90;1664.00;;;;;;5096223;28;20019;-64
2022/04/02 03:40:05;;;;;;;30.77;25.15;;;281.90;1664.00;;;;;;5096283;28;20059;-63
2022/04/02 03:42:32;;;;;;;30.00;25.45;;;281.80;1638.40;;;;;;5095799;28;20028;-59
2022/04/02 03:44:57;;;;;;;32.15;26.75;;;281.80;1664.00;;;;;;5096408;28;20055;-59
2022/04/02 03:47:23;;;;;;;34.97;28.45;;;281.80;1664.00;;;;;;5096268;28;20058;-58
2022/04/02 03:49:51;;;;;;;35.83;27.65;;;281.70;1638.40;;;;;;5096202;28;20032;-62
2022/04/02 03:52:17;;;;;;;33.65;27.63;;;281.70;1638.40;;;;;;5095964;28;20042;-59
2022/04/02 03:54:43;;;;;;;35.42;27.90;;;281.70;1638.40;;;;;;5095940;28;20452;-63
2022/04/02 03:57:11;;;;;;;33.10;27.52;;;281.70;1664.00;;;;;;5096095;28;20099;-63
2022/04/02 03:59:37;;;;;;;41.25;27.83;;;281.70;1664.00;;;;;;5095910;28;20048;-59
2022/04/02 04:02:04;;;;;;;41.42;29.02;;;281.60;1689.60;;;;;;5095925;28;20036;-59
2022/04/02 04:04:34;;;;;;;40.30;28.70;;;256.90;1689.60;;;;;;5095808;28;20028;-63
2022/04/02 04:07:00;;;;;;;36.60;28.98;;;256.90;1664.00;;;;;;5095367;28;20028;-63
2022/04/02 04:09:26;;;;;;;38.33;27.70;;;281.60;1689.60;;;;;;5095796;28;20430;-59
2022/04/02 04:11:52;;;;;;;37.17;28.35;;;281.60;1689.60;;;;;;5095800;28;20034;-62
2022/04/02 04:14:19;;;;;;;38.75;26.50;;;281.70;1689.60;;;;;;5095424;28;20032;-62
2022/04/02 04:16:46;;;;;;;39.42;26.45;;;281.70;1792.00;;;;;;5095743;28;20024;-59
2022/04/02 04:19:12;;;;;;;39.38;30.50;;;281.80;1766.40;;;;;;5094993;28;20497;-62
2022/04/02 04:21:38;;;;;;;36.60;29.58;;;281.80;1715.20;;;;;;5095069;28;20044;-62
2022/04/02 04:24:04;;;;;;;37.63;29.98;;;281.70;1689.60;;;;;;5094352;28;20023;-58
2022/04/02 04:26:30;;;;;;;39.13;31.33;;;281.60;1715.20;;;;;;5095423;28;20012;-61
2022/04/02 04:28:57;;;;;;;34.67;29.55;;;256.90;1689.60;;;;;;5095569;28;20377;-60
2022/04/02 04:31:23;;;;;;;36.25;29.35;;;256.80;1689.60;;;;;;5095151;28;20016;-60
2022/04/02 04:33:49;;;;;;;37.78;30.92;;;256.70;1715.20;;;;;;5095136;28;20362;-61
2022/04/02 04:36:16;;;;;;;39.05;30.60;;;256.70;1715.20;;;;;;5095067;28;20035;-64
2022/04/02 04:38:43;;;;;;;38.45;31.00;;;256.60;1715.20;;;;;;5095110;28;20050;-62
2022/04/02 04:41:09;;;;;;;37.72;30.25;;;256.60;1715.20;;;;;;5095213;28;20471;-63
2022/04/02 04:43:35;;;;;;;37.88;29.08;;;256.50;1715.20;;;;;;5094323;28;20020;-64
2022/04/02 04:46:04;;;;;;;38.90;30.13;;;256.50;1715.20;;;;;;5095093;28;20465;-63
2022/04/02 04:48:30;;;;;;;41.58;31.92;;;256.40;1715.20;;;;;;5095064;28;20051;-63
2022/04/02 04:50:56;;;;;;;36.80;30.27;;;256.30;1740.80;;;;;;5094908;28;20461;-59
2022/04/02 04:53:22;;;;;;;40.15;31.58;;;256.30;1740.80;;;;;;5094905;28;20028;-64
2022/04/02 04:55:48;;;;;;;40.10;32.22;;;256.20;1740.80;;;;;;5094720;28;20035;-63
2022/04/02 04:58:14;;;;;;;40.30;32.58;;;256.10;1766.40;;;;;;5094815;28;20020;-59
2022/04/02 05:00:42;;;;;;;40.10;31.80;;;256.00;1766.40;;;;;;5094833;28;20477;-60
2022/04/02 05:03:11;;;;;;;37.95;31.30;;;256.00;1766.40;;;;;;5095192;28;20024;-61
2022/04/02 05:05:38;;;;;;;42.92;31.45;;;256.00;1766.40;;;;;;5094474;28;20078;-59
2022/04/02 05:08:07;;;;;;;39.28;32.25;;;256.00;1766.40;;;;;;5094533;28;20024;-59
2022/04/02 05:10:34;;;;;;;42.65;32.90;;;256.00;1766.40;;;;;;5094672;28;20028;-61
2022/04/02 05:13:03;;;;;;;42.97;33.20;;;256.00;1766.40;;;;;;5094230;28;20028;-60
2022/04/02 05:15:29;;;;;;;47.60;34.40;;;256.00;1740.80;;;;;;5094605;28;20055;-61
2022/04/02 05:17:56;;;;;;;49.83;37.08;;;256.00;1740.80;;;;;;5094538;28;20462;-59
2022/04/02 05:20:22;;;;;;;49.92;38.45;;;231.30;1740.80;;;;;;5094830;28;20051;-61
2022/04/02 05:22:48;;;;;;;46.20;35.83;;;231.30;1740.80;;;;;;5093889;28;20059;-59
2022/04/02 05:25:16;;;;;;;46.58;33.83;;;231.30;1766.40;;;;;;5094294;28;20033;-58
2022/04/02 05:27:43;;;;;;;44.60;34.20;;;231.20;1766.40;;;;;;5094313;28;20094;-61
2022/04/02 05:30:11;;;;;;;56.35;36.72;;;231.20;1792.00;;;;;;5094294;28;20024;-63
2022/04/02 05:32:37;;;;;;;44.40;34.28;;;231.20;1766.40;;;;;;5094016;28;20027;-60
2022/04/02 05:35:03;;;;;;;41.03;26.20;;;231.20;1766.40;;;;;;5093884;28;20505;-59
2022/04/02 05:37:29;;;;;;;54.72;42.20;;;231.30;1971.20;;;;;;5093401;28;20069;-60
2022/04/02 05:39:56;;;;;;;135.15;104.75;;;256.60;1945.60;;;;;;5093957;28;20107;-62
2022/04/02 05:42:22;;;;;;;84.97;69.97;;;256.90;1817.60;;;;;;5093798;28;20026;-59
2022/04/02 05:44:49;;;;;;;63.22;51.88;;;256.70;1766.40;;;;;;5094072;28;20028;-62
2022/04/02 05:47:15;;;;;;;53.72;44.38;;;256.70;1740.80;;;;;;5093957;28;20036;-59
2022/04/02 05:49:41;;;;;;;49.55;41.42;;;256.70;1715.20;;;;;;5094304;28;20416;-59
2022/04/02 05:52:07;;;;;;;46.33;38.28;;;256.70;1715.20;;;;;;5074600;28;20032;-59
2022/04/02 05:54:34;;;;;;;50.90;38.45;;;256.70;1689.60;;;;;;5093531;28;20059;-63
2022/04/02 05:57:00;;;;;;;50.40;38.78;;;256.80;1689.60;;;;;;5093348;28;20107;-58
2022/04/02 05:59:28;;;;;;;49.85;35.15;;;256.80;1664.00;;;;;;5083325;28;20020;-59
2022/04/02 06:01:53;;;;;;;46.70;34.47;;;256.80;1664.00;;;;;;5080023;28;20086;-61
2022/04/02 06:04:19;;;;;;;47.88;37.55;;;256.80;1664.00;;;;;;5082739;28;20347;-59
2022/04/02 06:06:45;;;;;;;46.65;37.22;;;256.70;1689.60;;;;;;5084297;28;20040;-58
2022/04/02 06:09:11;;;;;;;46.45;35.40;;;256.80;1689.60;;;;;;5082248;28;20078;-59
2022/04/02 06:11:38;;;;;;;44.22;33.97;;;256.90;1664.00;;;;;;5083148;28;20068;-60
2022/04/02 06:14:03;;;;;;;46.35;34.30;;;256.70;1689.60;;;;;;5083748;28;20500;-62
2022/04/02 06:16:29;;;;;;;51.97;37.28;;;256.70;1664.00;;;;;;5081678;28;20016;-60
2022/04/02 06:18:55;;;;;;;53.72;39.33;;;256.70;1664.00;;;;;;5082685;28;20433;-59
2022/04/02 06:21:21;;;;;;;62.28;44.78;;;256.70;1664.00;;;;;;5087464;28;20079;-58
2022/04/02 06:23:47;;;;;;;60.38;41.67;;;256.70;1638.40;;;;;;5093684;28;20462;-57
2022/04/02 06:26:13;;;;;;;52.78;39.17;;;256.70;1638.40;;;;;;5093411;28;20477;-60
2022/04/02 06:28:40;;;;;;;53.65;39.20;;;256.70;1638.40;;;;;;5093702;28;20039;-57
2022/04/02 06:31:06;;;;;;;48.65;36.75;;;256.70;1638.40;;;;;;5093360;28;20085;-58
2022/04/02 06:33:35;;;;;;;48.53;35.90;;;256.70;1664.00;;;;;;5093274;28;20380;-61
2022/04/02 06:36:01;;;;;;;46.15;34.58;;;256.80;1664.00;;;;;;5084649;28;20572;-58
2022/04/02 06:38:27;;;;;;;44.90;34.35;;;256.70;1664.00;;;;;;5073136;28;20028;-57
2022/04/02 06:40:53;;;;;;;42.65;33.25;;;256.70;1664.00;;;;;;5078120;28;20482;-58
2022/04/02 06:43:20;;;;;;;44.60;33.90;;;256.80;1664.00;;;;;;5086978;28;20055;-60
2022/04/02 06:45:46;;;;;;;51.00;37.10;;;256.80;1664.00;;;;;;5093120;28;20078;-60
2022/04/02 06:48:13;;;;;;;61.97;43.22;;;256.80;1689.60;;;;;;5090839;28;20032;-57
2022/04/02 06:50:43;;;;;;;61.33;42.83;;;256.90;1664.00;;;;;;5084594;28;20024;-57
2022/04/02 06:53:10;;;;;;;63.70;43.60;;;281.60;1689.60;;;;;;5079346;28;20020;-57
2022/04/02 06:55:35;;;;;;;53.38;39.13;;;256.90;1664.00;;;;;;5075926;28;20033;-60
2022/04/02 06:58:02;;;;;;;69.72;48.45;;;281.60;1689.60;;;;;;5076877;28;20025;-58
2022/04/02 07:00:28;;;;;;;65.53;47.13;;;281.60;1689.60;;;;;;5076935;28;20020;-58
2022/04/02 07:02:53;;;;;;;62.05;44.80;;;281.70;1689.60;;;;;;5079461;28;20378;-60
2022/04/02 07:05:19;;;;;;;62.42;44.42;;;281.60;1689.60;;;;;;5084980;28;20024;-64
2022/04/02 07:07:46;;;;;;;54.17;40.58;;;281.70;1689.60;;;;;;5083424;28;20484;-58
2022/04/02 07:10:13;;;;;;;52.63;39.88;;;281.70;1689.60;;;;;;5085242;28;20216;-58
2022/04/02 07:12:39;;;;;;;49.03;36.45;;;281.70;1664.00;;;;;;5086663;28;20016;-57
2022/04/02 07:15:05;;;;;;;61.85;45.30;;;281.70;1664.00;;;;;;5086714;28;20102;-58
2022/04/02 07:17:31;;;;;;;54.25;40.78;;;281.70;1664.00;;;;;;5085288;28;20373;-63
2022/04/02 07:20:02;;;;;;;55.38;41.78;;;281.60;1664.00;;;;;;5088012;28;20020;-57
2022/04/02 07:22:28;;;;;;;51.35;38.05;;;281.60;1664.00;;;;;;5096309;28;20508;-58
2022/04/02 07:24:55;;;;;;;47.03;36.38;;;281.60;1664.00;;;;;;5096488;28;20123;-60
2022/04/02 07:27:22;;;;;;;50.03;36.28;;;281.70;1664.00;;;;;;5096736;28;20099;-61
2022/04/02 07:29:56;;;;;;;58.28;36.63;;;281.60;1664.00;;;;;;5078628;28;20473;-62
2022/04/02 07:32:22;;;;;;;52.13;36.65;;;281.60;1664.00;;;;;;5096539;28;20488;-57
2022/04/02 07:34:48;;;;;;;58.22;38.25;;;281.70;1664.00;;;;;;5096333;28;20470;-63
2022/04/02 07:38:00;;;;;;;50.78;37.17;;;281.60;1664.00;;;;;;5096184;28;20067;-60
2022/04/02 07:40:29;;;;;;;49.90;36.10;;;281.70;1638.40;;;;;;4994595;28;20057;-58
2022/04/02 07:43:14;;;;;;;45.05;35.08;;;281.70;1638.40;;;;;;4994729;28;20385;-63
2022/04/02 07:45:47;;;;;;;57.13;37.03;;;281.70;1638.40;;;;;;4994584;28;20479;-64
2022/04/02 07:48:16;;;;;;;50.03;35.67;;;281.70;1638.40;;;;;;4994408;28;20432;-65
2022/04/02 07:50:44;;;;;;;49.05;35.33;;;281.70;1638.40;;;;;;4978177;28;20030;-64
2022/04/02 07:53:22;;;;;;;54.50;37.92;;;281.70;1612.80;;;;;;4994350;28;20022;-58
2022/04/02 07:55:53;;;;;;;50.72;35.53;;;281.70;1664.00;;;;;;4994341;28;20038;-61
2022/04/02 07:58:24;;;;;;;53.45;35.40;;;281.80;1664.00;;;;;;4994185;28;20031;-60
2022/04/02 08:00:54;;;;;;;49.90;34.78;;;281.70;1638.40;;;;;;4994484;28;20034;-60
2022/04/02 08:03:20;;;;;;;62.85;43.58;;;281.80;1664.00;;;;;;4994192;28;20039;-59
2022/04/02 08:05:47;;;;;;;76.53;47.85;;;281.80;1664.00;;;;;;4994491;28;20054;-59
2022/04/02 08:08:13;;;;;;;71.78;43.88;;;281.80;1664.00;;;;;;4994178;28;20045;-67
2022/04/02 08:10:45;;;;;;;65.40;38.60;;;281.80;1638.40;;;;;;4994107;28;20031;-58
2022/04/02 08:13:14;;;;;;;58.10;40.72;;;281.80;1638.40;;;;;;4993820;28;20062;-58
2022/04/02 08:15:40;;;;;;;58.17;37.45;;;281.80;1638.40;;;;;;4997164;28;20026;-66
2022/04/02 08:18:07;;;;;;;55.20;39.80;;;281.80;1612.80;;;;;;5095650;28;20050;-59
2022/04/02 08:20:33;;;;;;;56.60;40.95;;;281.80;1638.40;;;;;;5095742;28;20031;-61
2022/04/02 08:23:01;;;;;;;56.05;39.30;;;281.80;1664.00;;;;;;5095436;28;20100;-63
2022/04/02 08:25:27;;;;;;;59.15;39.92;;;281.80;1664.00;;;;;;5095539;28;20024;-59
2022/04/02 08:28:13;;;;;;;47.53;31.77;;;282.00;1664.00;;;;;;5085881;28;20111;-57
2022/04/02 08:30:51;;;;;;;52.35;44.17;;;282.50;1868.80;;;;;;5080380;28;20066;-58
2022/04/02 08:33:44;;;;;;;46.65;37.50;;;307.40;1817.60;;;;;;5082630;28;20028;-57
2022/04/02 08:36:21;;;;;;;35.17;27.13;;;307.70;1792.00;;;;;;5083484;28;20044;-58
2022/04/02 08:39:23;;;;;;;36.65;28.52;;;308.00;1689.60;;;;;;5082661;28;20091;-58
2022/04/02 08:41:51;;;;;;;32.97;27.20;;;332.80;1715.20;;;;;;5082833;28;20024;-57
2022/04/02 08:44:54;;;;;;;40.85;30.98;;;333.00;1715.20;;;;;;5087372;28;20086;-63
2022/04/02 08:47:56;;;;;;;83.93;74.60;;;333.00;1561.60;;;;;;5095264;28;20024;-60
2022/04/02 08:50:36;;;;;;;96.57;85.95;;;332.80;1561.60;;;;;;5091119;28;20028;-59
2022/04/02 08:53:21;;;;;;;61.58;49.25;;;308.00;1536.00;;;;;;5066691;28;20032;-59
2022/04/02 08:55:51;;;;;;;45.08;39.80;;;307.80;1561.60;;;;;;5081613;28;20389;-62
2022/04/02 08:58:19;;;;;;;46.05;37.40;;;307.80;1561.60;;;;;;5083186;28;20054;-60
2022/04/02 09:01:08;;;;;;;47.40;36.58;;;307.70;1561.60;;;;;;5081096;28;20028;-61
2022/04/02 09:04:00;;;;;;;44.47;35.97;;;307.60;1612.80;;;;;;5083517;28;20473;-63
2022/04/02 09:06:47;;;;;;;42.78;35.05;;;307.60;1612.80;;;;;;5001648;28;20407;-65
2022/04/02 09:09:46;;;;;;;77.53;58.60;;;307.60;1612.80;;;;;;5000109;28;20030;-59
2022/04/02 09:12:32;;;;;;;92.75;69.13;;;307.60;1612.80;;;;;;5002472;28;20042;-58
2022/04/02 09:15:06;;;;;;;159.15;106.75;;;307.50;1612.80;;;;;;4999043;28;20034;-57
2022/04/02 09:17:46;;;;;;;107.63;74.32;;;307.60;1612.80;;;;;;4984792;28;20069;-58
2022/04/02 09:20:47;;;;;;;184.75;115.25;;;307.50;1587.20;;;;;;5001060;28;20044;-61
2022/04/02 09:23:22;;;;;;;191.15;116.43;;;307.40;1612.80;;;;;;4965518;28;20039;-59
2022/04/02 09:26:05;;;;;;;90.82;64.95;;;307.40;1612.80;;;;;;4968978;28;20074;-58
2022/04/02 09:28:49;;;;;;;58.55;47.63;;;307.40;1612.80;;;;;;4991404;28;20480;-58
2022/04/02 09:31:33;;;;;;;50.15;38.83;;;307.40;1612.80;;;;;;4987036;28;20030;-64
2022/04/02 09:34:49;;;;;;;51.22;43.90;;;307.40;1612.80;;;;;;4974029;28;20043;-63
2022/04/02 09:37:32;;;;;;;50.40;42.67;;;307.40;1612.80;;;;;;4905783;29;20120;-60
2022/04/02 09:40:11;;;;;;;39.83;33.47;;;307.40;1612.80;;;;;;4925231;29;20071;-59
2022/04/02 09:42:44;;;;;;;40.83;31.95;;;307.40;1612.80;;;;;;4926078;28;20043;-65
2022/04/02 09:45:18;;;;;;;43.78;36.17;;;307.40;1612.80;;;;;;5002606;28;20038;-67
2022/04/02 09:48:12;;;;;;;40.03;31.25;;;307.40;1638.40;;;;;;4998968;28;20034;-61
2022/04/02 09:50:39;;;;;;;38.33;31.13;;;307.50;1612.80;;;;;;4998684;28;20022;-64
2022/04/02 09:53:41;;;;;;;37.25;29.02;;;307.50;1638.40;;;;;;5001279;28;20088;-60
2022/04/02 09:56:33;;;;;;;35.17;29.00;;;307.60;1612.80;;;;;;4914590;29;20032;-58
2022/04/02 09:59:30;;;;;;;38.00;29.08;;;307.60;1638.40;;;;;;4915091;29;20119;-60
2022/04/02 10:02:04;;;;;;;35.58;29.42;;;307.60;1587.20;;;;;;4910905;29;20095;-63
2022/04/02 10:04:53;;;;;;;38.25;29.90;;;307.70;1612.80;;;;;;4914273;29;20058;-64
2022/04/02 10:07:34;;;;;;;41.85;31.70;;;307.70;1612.80;;;;;;4912395;29;20036;-60
2022/04/02 10:10:01;;;;;;;37.65;30.00;;;307.70;1638.40;;;;;;4917551;29;20035;-59
2022/04/02 10:12:29;;;;;;;42.28;30.25;;;307.70;1587.20;;;;;;4952913;29;20040;-60
2022/04/02 10:14:59;;;;;;;37.30;30.33;;;307.70;1587.20;;;;;;4951942;29;20043;-58
2022/04/02 10:17:28;;;;;;;37.78;29.08;;;307.70;1612.80;;;;;;4952836;29;20035;-62
2022/04/02 10:19:57;;;;;;;38.13;30.25;;;307.80;1587.20;;;;;;4950495;28;20035;-61
2022/04/02 10:22:45;;;;;;;36.63;29.70;;;307.80;1587.20;;;;;;4970568;28;20054;-60
2022/04/02 10:25:13;;;;;;;37.25;30.73;;;307.80;1587.20;;;;;;4976754;28;20058;-61
2022/04/02 10:27:41;;;;;;;96.47;70.03;;;307.80;1612.80;;;;;;4976604;28;20058;-62
2022/04/02 10:30:18;;;;;;;149.00;98.95;;;307.80;1587.20;;;;;;4976665;28;20035;-63
2022/04/02 10:32:52;;;;;;;362.67;235.52;;;307.80;1587.20;;;;;;5034546;28;20057;-62
2022/04/02 10:35:18;;;;;;;;;;;307.80;1587.20;;;;;;5037890;28;20026;-59
2022/04/02 10:38:09;;;;;;;75.97;58.15;;;307.70;1612.80;;;;;;5037169;28;19905;-64
2022/04/02 10:40:53;;;;;;;56.90;44.25;;;307.60;1587.20;;;;;;4995543;28;20045;-58
2022/04/02 10:43:28;;;;;;;55.05;42.75;;;307.60;1587.20;;;;;;4995794;28;20029;-63
2022/04/02 10:45:56;;;;;;;40.88;33.95;;;307.60;1612.80;;;;;;4995876;28;20034;-63
2022/04/02 10:48:33;;;;;;;34.08;28.92;;;307.50;1612.80;;;;;;4995632;28;20106;-62
2022/04/02 10:51:01;;;;;;;35.42;28.15;;;307.40;1612.80;;;;;;4995266;28;20030;-59
2022/04/02 10:53:31;;;;;;;39.72;32.15;;;307.50;1612.80;;;;;;4995527;28;20030;-59
2022/04/02 10:56:01;;;;;;;33.22;26.95;;;307.40;1638.40;;;;;;4995476;28;20516;-58
2022/04/02 10:58:36;;;;;;;35.08;30.17;;;307.40;1612.80;;;;;;4995696;28;20117;-59
2022/04/02 11:01:04;;;;;;;36.90;28.60;;;307.40;1612.80;;;;;;4995550;28;20027;-61
2022/04/02 11:03:41;;;;;;;37.92;30.48;;;307.40;1612.80;;;;;;4995563;28;20457;-59
2022/04/02 11:06:08;;;;;;;36.45;29.75;;;307.40;1638.40;;;;;;4995238;28;20035;-58
2022/04/02 11:08:34;;;;;;;40.90;31.63;;;307.40;1664.00;;;;;;4995299;28;20361;-58
2022/04/02 11:11:17;;;;;;;51.13;34.88;;;307.40;1664.00;;;;;;4995145;28;20045;-64
2022/04/02 11:13:43;;;;;;;41.60;33.08;;;307.40;1638.40;;;;;;4995210;28;20030;-64
2022/04/02 11:16:23;;;;;;;46.42;36.10;;;307.30;1664.00;;;;;;4994985;28;20031;-59
2022/04/02 11:22:03;;;;;;;38.92;30.58;;;307.30;1715.20;;;;;;5055516;28;20047;-58
2022/04/02 11:24:34;;;;;;;36.70;29.42;;;307.30;1689.60;;;;;;5076261;28;20029;-58
2022/04/02 11:27:01;;;;;;;37.55;30.38;;;307.30;1689.60;;;;;;5076103;28;20024;-64
2022/04/02 11:29:30;;;;;;;38.75;31.48;;;307.30;1740.80;;;;;;5076622;28;20029;-61
2022/04/02 11:32:00;;;;;;;41.58;31.02;;;307.30;1740.80;;;;;;5075790;28;20025;-63
2022/04/02 11:34:28;;;;;;;46.78;34.58;;;307.20;1740.80;;;;;;5076137;28;20116;-64
2022/04/02 11:37:03;;;;;;;53.22;37.72;;;307.20;1766.40;;;;;;5075605;28;20061;-61
2022/04/02 11:39:46;;;;;;;45.95;34.55;;;307.20;1766.40;;;;;;5075983;28;20031;-63
2022/04/02 11:42:14;;;;;;;49.22;37.75;;;282.50;1740.80;;;;;;5076143;28;20083;-58
2022/04/02 11:44:50;;;;;;;68.70;45.30;;;282.50;1740.80;;;;;;5075942;28;20462;-64
2022/04/02 11:47:25;;;;;;;62.80;43.97;;;282.40;1715.20;;;;;;5075877;28;20032;-64
2022/04/02 11:49:54;;;;;;;51.40;39.25;;;282.30;1766.40;;;;;;5075724;28;20035;-60
2022/04/02 11:52:20;;;;;;;61.47;45.33;;;282.30;1792.00;;;;;;5075826;28;20378;-65
2022/04/02 11:54:48;;;;;;;63.20;47.38;;;282.20;1766.40;;;;;;5075243;28;20037;-59
2022/04/02 11:57:15;;;;;;;64.20;46.70;;;282.20;1792.00;;;;;;5075799;28;20466;-65
2022/04/02 11:59:57;;;;;;;55.05;42.13;;;282.20;1817.60;;;;;;5075628;28;20028;-65
2022/04/02 12:02:53;;;;;;;53.08;41.45;;;282.20;1817.60;;;;;;5075771;28;20096;-59
2022/04/02 12:05:20;;;;;;;50.85;38.65;;;282.20;1843.20;;;;;;5013727;28;20045;-60
2022/04/02 12:07:48;;;;;;;50.13;37.63;;;282.10;1843.20;;;;;;5013887;28;20029;-64
2022/04/02 12:10:16;;;;;;;40.97;33.20;;;282.20;1817.60;;;;;;5013672;28;20451;-61
2022/04/02 12:12:44;;;;;;;45.65;35.67;;;282.20;1792.00;;;;;;5013596;28;20038;-64
2022/04/02 12:15:11;;;;;;;56.05;40.28;;;282.20;1792.00;;;;;;5013398;28;20042;-64
2022/04/02 12:17:39;;;;;;;48.20;37.97;;;282.20;1792.00;;;;;;5013468;28;20487;-58
2022/04/02 12:20:09;;;;;;;68.28;49.33;;;282.20;1792.00;;;;;;5013618;28;20116;-58